Time;durP1;ratioP1;P1;durP2;ratioP2;P2;SDS_P1;SDS_P2;PMS_P1;PMS_P2;Temp;Humidity;BMP_temperature;BMP_pressure;BME280_temperature;BME280_humidity;BME280_pressure;Samples;Min_cycle;Max_cycle;Signal;HPM_P1;HPM_P2
2022/01/23 00:00:33;;;;;;;8.60;3.25;;;;;;;;;;4954282;28;20142;-89
2022/01/23 00:03:07;;;;;;;6.80;2.65;;;;;;;;;;4936506;28;20039;-89
2022/01/23 00:05:36;;;;;;;8.48;2.92;;;;;;;;;;4936266;28;20563;-88
2022/01/23 00:08:03;;;;;;;7.80;3.08;;;;;;;;;;4952077;28;20480;-89
2022/01/23 00:10:33;;;;;;;7.88;3.10;;;;;;;;;;4968756;28;20051;-88
2022/01/23 00:13:25;;;;;;;11.63;3.58;;;;;;;;;;4961268;28;20054;-88
2022/01/23 00:18:50;;;;;;;9.18;3.65;;;;;;;;;;4956231;28;20109;-86
2022/01/23 00:21:16;;;;;;;12.75;3.95;;;;;;;;;;4957130;28;20138;-89
2022/01/23 00:31:44;;;;;;;13.23;3.25;;;;;;;;;;4967925;28;20664;-89
2022/01/23 00:34:10;;;;;;;13.98;3.38;;;;;;;;;;4969833;28;20157;-90
2022/01/23 00:36:36;;;;;;;8.63;3.13;;;;;;;;;;4935723;28;20059;-88
2022/01/23 00:39:03;;;;;;;12.73;3.38;;;;;;;;;;4936815;28;20047;-89
2022/01/23 00:41:29;;;;;;;9.70;4.03;;;;;;;;;;4964743;28;20514;-88
2022/01/23 00:44:02;;;;;;;11.35;3.50;;;;;;;;;;4970144;28;20559;-89
2022/01/23 00:46:34;;;;;;;12.40;3.38;;;;;;;;;;4966354;28;20047;-88
2022/01/23 00:51:37;;;;;;;11.50;3.10;;;;;;;;;;4952097;28;20086;-88
2022/01/23 00:54:05;;;;;;;9.95;3.63;;;;;;;;;;4953010;28;20082;-87
2022/01/23 00:56:32;;;;;;;9.27;2.90;;;;;;;;;;4953187;28;20027;-89
2022/01/23 00:59:02;;;;;;;11.90;3.20;;;;;;;;;;4934856;28;20426;-90
2022/01/23 01:01:28;;;;;;;12.65;4.63;;;;;;;;;;4971302;28;20043;-90
2022/01/23 01:03:54;;;;;;;5.20;2.40;;;;;;;;;;4966047;28;20487;-88
2022/01/23 01:06:20;;;;;;;8.77;3.00;;;;;;;;;;4948254;28;20047;-89
2022/01/23 01:08:49;;;;;;;12.13;3.10;;;;;;;;;;4948666;28;20233;-89
2022/01/23 01:16:58;;;;;;;16.45;3.85;;;;;;;;;;4958627;28;20043;-86
2022/01/23 01:38:55;;;;;;;8.43;2.63;;;;;;;;;;4969214;28;20058;-86
2022/01/23 01:41:21;;;;;;;10.82;2.33;;;;;;;;;;4966766;28;20121;-86
2022/01/23 01:43:48;;;;;;;6.05;2.42;;;;;;;;;;4965962;28;20502;-87
2022/01/23 01:46:32;;;;;;;11.23;2.78;;;;;;;;;;4936833;28;20046;-86
2022/01/23 01:49:08;;;;;;;4.05;2.15;;;;;;;;;;4983600;28;20076;-86
2022/01/23 01:51:34;;;;;;;11.05;3.33;;;;;;;;;;4983928;28;20133;-86
2022/01/23 01:54:12;;;;;;;8.05;2.33;;;;;;;;;;4984814;28;20098;-87
2022/01/23 01:56:47;;;;;;;7.03;2.40;;;;;;;;;;4971900;28;20038;-86
2022/01/23 01:59:23;;;;;;;7.05;2.25;;;;;;;;;;4983266;28;20047;-87
2022/01/23 02:14:41;;;;;;;12.82;3.22;;;;;;;;;;4965949;28;20671;-86
2022/01/23 02:17:26;;;;;;;8.85;2.17;;;;;;;;;;4968222;28;20046;-87
2022/01/23 02:52:57;;;;;;;6.68;2.50;;;;;;;;;;4944421;29;20078;-88
2022/01/23 02:55:33;;;;;;;8.93;2.65;;;;;;;;;;4944138;29;20043;-87
2022/01/23 02:58:04;;;;;;;4.47;2.70;;;;;;;;;;4910488;29;20202;-87
2022/01/23 03:00:46;;;;;;;5.45;2.60;;;;;;;;;;4941250;29;20043;-88
2022/01/23 03:03:15;;;;;;;9.98;2.75;;;;;;;;;;4935647;29;20644;-87
2022/01/23 03:05:41;;;;;;;5.47;2.80;;;;;;;;;;4944666;28;20099;-88
2022/01/23 03:10:47;;;;;;;13.05;3.00;;;;;;;;;;4942242;28;20048;-87
2022/01/23 03:24:07;;;;;;;6.18;2.90;;;;;;;;;;4893171;29;20136;-86
2022/01/23 03:24:47;;;;;;;14.75;4.00;;;;;;;;;;4942922;29;20495;-87
2022/01/23 03:30:17;;;;;;;9.85;3.72;;;;;;;;;;4974290;28;20051;-87
2022/01/23 03:32:47;;;;;;;6.18;3.00;;;;;;;;;;4968236;28;20425;-86
2022/01/23 03:35:14;;;;;;;8.98;3.78;;;;;;;;;;4984642;28;20507;-87
2022/01/23 03:37:40;;;;;;;7.82;3.88;;;;;;;;;;4976772;28;20112;-87
2022/01/23 03:40:07;;;;;;;8.45;3.65;;;;;;;;;;4951574;28;20049;-85
2022/01/23 03:42:36;;;;;;;7.38;4.05;;;;;;;;;;4987013;28;20097;-86
2022/01/23 03:47:42;;;;;;;6.43;3.03;;;;;;;;;;4968655;28;20050;-87
2022/01/23 03:50:12;;;;;;;6.28;3.45;;;;;;;;;;4942661;28;20073;-86
2022/01/23 03:52:41;;;;;;;10.07;4.70;;;;;;;;;;4954027;28;20058;-86
2022/01/23 03:55:07;;;;;;;11.25;3.90;;;;;;;;;;4988125;28;20154;-88
2022/01/23 03:57:34;;;;;;;6.05;3.65;;;;;;;;;;4939814;28;20053;-86
2022/01/23 04:00:00;;;;;;;5.15;3.30;;;;;;;;;;4950637;28;20408;-86
2022/01/23 04:02:26;;;;;;;10.38;4.18;;;;;;;;;;4991073;28;20050;-87
2022/01/23 04:04:52;;;;;;;8.00;4.15;;;;;;;;;;4979824;28;20061;-87
2022/01/23 04:07:21;;;;;;;13.23;4.18;;;;;;;;;;4969435;28;20045;-88
2022/01/23 04:09:48;;;;;;;18.95;4.75;;;;;;;;;;4986853;28;20061;-87
2022/01/23 04:15:11;;;;;;;12.13;4.22;;;;;;;;;;4970752;28;20097;-85
2022/01/23 04:34:29;;;;;;;9.10;4.32;;;;;;;;;;4989184;28;20066;-86
2022/01/23 05:04:33;;;;;;;12.95;4.30;;;;;;;;;;4988136;28;20046;-88
2022/01/23 05:07:05;;;;;;;11.20;4.03;;;;;;;;;;4986990;28;20100;-87
2022/01/23 05:09:32;;;;;;;8.45;3.88;;;;;;;;;;4938278;28;20400;-87
2022/01/23 05:12:00;;;;;;;7.82;4.20;;;;;;;;;;4968978;28;20058;-86
2022/01/23 05:14:32;;;;;;;11.32;5.68;;;;;;;;;;4952312;28;20050;-86
2022/01/23 05:16:59;;;;;;;11.15;4.28;;;;;;;;;;4985123;28;20092;-88
2022/01/23 05:19:25;;;;;;;6.93;4.30;;;;;;;;;;4969130;28;20053;-87
2022/01/23 05:22:07;;;;;;;6.05;3.85;;;;;;;;;;4966011;28;20054;-88
2022/01/23 05:24:39;;;;;;;8.98;4.18;;;;;;;;;;4962771;28;20569;-86
2022/01/23 05:27:07;;;;;;;10.57;4.57;;;;;;;;;;4984321;28;20482;-88
2022/01/23 05:29:33;;;;;;;6.93;4.40;;;;;;;;;;4966050;28;20046;-86
2022/01/23 05:32:00;;;;;;;13.85;3.80;;;;;;;;;;4966613;28;20100;-87
2022/01/23 05:34:26;;;;;;;10.23;3.95;;;;;;;;;;4982413;28;20418;-87
2022/01/23 05:36:53;;;;;;;9.50;4.55;;;;;;;;;;4988310;28;20101;-87
2022/01/23 05:39:22;;;;;;;6.93;3.97;;;;;;;;;;4967729;28;20049;-89
2022/01/23 05:41:52;;;;;;;10.90;4.45;;;;;;;;;;4988590;28;20060;-88
2022/01/23 05:44:19;;;;;;;7.25;4.50;;;;;;;;;;4985426;28;20042;-89
2022/01/23 05:46:45;;;;;;;7.07;4.00;;;;;;;;;;4969446;28;20061;-89
2022/01/23 05:49:11;;;;;;;11.73;3.97;;;;;;;;;;4967290;28;20494;-87
2022/01/23 05:51:37;;;;;;;10.32;4.63;;;;;;;;;;4952156;28;20586;-86
2022/01/23 05:54:04;;;;;;;50.33;7.43;;;;;;;;;;4987579;28;20471;-88
2022/01/23 05:56:30;;;;;;;6.80;4.07;;;;;;;;;;4959585;28;20050;-89
2022/01/23 05:58:56;;;;;;;9.35;4.38;;;;;;;;;;4958122;28;20042;-89
2022/01/23 06:01:22;;;;;;;5.13;3.83;;;;;;;;;;4987428;28;20049;-88
2022/01/23 06:03:48;;;;;;;9.02;4.35;;;;;;;;;;4954356;28;20165;-90
2022/01/23 06:06:15;;;;;;;7.05;4.13;;;;;;;;;;4987710;28;20082;-89
2022/01/23 06:08:41;;;;;;;9.25;4.38;;;;;;;;;;4952906;28;20054;-86
2022/01/23 06:11:07;;;;;;;9.23;4.43;;;;;;;;;;4967207;28;20046;-88
2022/01/23 06:13:34;;;;;;;17.52;5.50;;;;;;;;;;4971872;28;20057;-88
2022/01/23 06:16:03;;;;;;;11.25;4.30;;;;;;;;;;4973711;28;20082;-88
2022/01/23 06:18:29;;;;;;;8.60;4.68;;;;;;;;;;4950027;28;20046;-88
2022/01/23 06:20:55;;;;;;;9.82;4.55;;;;;;;;;;4970932;28;20100;-88
2022/01/23 06:23:24;;;;;;;9.13;4.80;;;;;;;;;;4952825;28;20100;-89
2022/01/23 06:25:50;;;;;;;9.98;4.43;;;;;;;;;;4978025;23;20069;-86
2022/01/23 06:28:35;;;;;;;7.65;4.68;;;;;;;;;;4987589;28;20050;-87
2022/01/23 06:31:04;;;;;;;10.02;4.55;;;;;;;;;;4999759;28;20108;-90
2022/01/23 06:33:30;;;;;;;9.15;4.68;;;;;;;;;;4989802;28;20141;-89
2022/01/23 06:35:56;;;;;;;10.13;4.63;;;;;;;;;;4974143;28;20057;-87
2022/01/23 06:38:23;;;;;;;14.07;4.95;;;;;;;;;;4992192;28;20052;-90
2022/01/23 06:41:04;;;;;;;7.97;4.78;;;;;;;;;;5009856;28;20087;-91
2022/01/23 06:43:30;;;;;;;12.25;5.20;;;;;;;;;;4993417;28;20056;-89
2022/01/23 06:45:56;;;;;;;10.90;4.85;;;;;;;;;;4991087;28;20060;-88
2022/01/23 06:48:23;;;;;;;9.50;5.03;;;;;;;;;;4976725;28;20038;-89
2022/01/23 06:50:50;;;;;;;7.53;4.32;;;;;;;;;;4995199;28;20061;-89
2022/01/23 06:53:16;;;;;;;9.52;4.95;;;;;;;;;;4979811;28;20041;-89
2022/01/23 06:55:42;;;;;;;9.70;5.10;;;;;;;;;;5005461;28;20057;-90
2022/01/23 06:58:08;;;;;;;11.60;5.50;;;;;;;;;;5016442;28;20143;-90
2022/01/23 07:00:35;;;;;;;8.63;5.07;;;;;;;;;;4998795;28;20127;-88
2022/01/23 07:03:01;;;;;;;9.70;6.22;;;;;;;;;;5008800;28;20041;-87
2022/01/23 07:05:28;;;;;;;8.68;5.40;;;;;;;;;;4989621;28;20050;-89
2022/01/23 07:07:54;;;;;;;6.90;4.80;;;;;;;;;;4976217;28;20045;-89
2022/01/23 07:10:39;;;;;;;8.07;5.00;;;;;;;;;;5006573;28;20100;-85
2022/01/23 07:13:11;;;;;;;9.65;5.05;;;;;;;;;;4989163;28;20038;-88
2022/01/23 07:15:37;;;;;;;10.88;5.22;;;;;;;;;;4992505;28;20053;-89
2022/01/23 07:21:09;;;;;;;8.80;5.15;;;;;;;;;;5009652;28;20095;-88
2022/01/23 07:23:35;;;;;;;12.65;5.32;;;;;;;;;;4979757;28;20046;-89
2022/01/23 07:26:02;;;;;;;11.30;5.60;;;;;;;;;;4981964;28;20073;-88
2022/01/23 07:28:43;;;;;;;13.13;5.40;;;;;;;;;;4975435;28;20038;-88
2022/01/23 07:31:21;;;;;;;8.77;5.28;;;;;;;;;;5006590;28;20116;-89
2022/01/23 07:33:47;;;;;;;8.13;4.75;;;;;;;;;;4975985;28;20042;-89
2022/01/23 07:36:15;;;;;;;7.88;5.07;;;;;;;;;;4974508;28;20509;-88
2022/01/23 07:38:48;;;;;;;10.98;5.50;;;;;;;;;;4988876;28;20042;-86
2022/01/23 07:41:14;;;;;;;7.30;5.20;;;;;;;;;;5015972;28;20038;-89
2022/01/23 07:43:44;;;;;;;5.72;4.78;;;;;;;;;;4947933;28;20053;-89
2022/01/23 07:46:11;;;;;;;9.73;4.63;;;;;;;;;;4991942;28;20084;-87
2022/01/23 07:48:38;;;;;;;8.70;5.68;;;;;;;;;;4990002;28;20165;-90
2022/01/23 07:51:20;;;;;;;5.30;4.75;;;;;;;;;;5002252;28;20034;-88
2022/01/23 07:53:46;;;;;;;8.75;4.82;;;;;;;;;;4985459;28;20097;-86
2022/01/23 07:56:18;;;;;;;7.82;4.72;;;;;;;;;;4970566;28;20462;-88
2022/01/23 07:58:47;;;;;;;8.18;4.55;;;;;;;;;;4986418;28;20093;-87
2022/01/23 08:01:13;;;;;;;7.25;4.82;;;;;;;;;;4987803;28;20056;-86
2022/01/23 08:03:59;;;;;;;8.63;5.10;;;;;;;;;;4970610;28;20510;-89
2022/01/23 08:06:31;;;;;;;8.55;4.72;;;;;;;;;;4967816;28;20070;-87
2022/01/23 08:09:00;;;;;;;13.38;5.30;;;;;;;;;;5004001;28;20544;-90
2022/01/23 08:11:30;;;;;;;7.45;4.82;;;;;;;;;;4995822;28;20050;-88
2022/01/23 08:13:57;;;;;;;9.45;4.85;;;;;;;;;;4993420;28;20073;-88
2022/01/23 08:16:27;;;;;;;6.10;4.15;;;;;;;;;;4990599;28;20050;-86
2022/01/23 08:18:53;;;;;;;5.78;3.97;;;;;;;;;;4990938;28;20115;-88
2022/01/23 08:21:19;;;;;;;7.00;4.30;;;;;;;;;;5005922;28;20088;-89
2022/01/23 08:23:58;;;;;;;7.50;4.85;;;;;;;;;;4990526;28;20105;-83
2022/01/23 08:26:24;;;;;;;8.32;4.63;;;;;;;;;;5009711;28;20104;-89
2022/01/23 08:28:50;;;;;;;5.80;4.13;;;;;;;;;;4992780;28;20049;-88
2022/01/23 08:31:17;;;;;;;7.53;4.72;;;;;;;;;;5007983;28;20417;-89
2022/01/23 08:33:43;;;;;;;9.63;4.40;;;;;;;;;;4969922;28;20352;-85
2022/01/23 08:36:12;;;;;;;7.00;4.68;;;;;;;;;;4997819;28;20050;-85
2022/01/23 08:38:50;;;;;;;5.78;3.88;;;;;;;;;;4999168;28;20113;-87
2022/01/23 08:43:51;;;;;;;6.57;4.38;;;;;;;;;;5005932;28;21029;-88
2022/01/23 08:46:20;;;;;;;8.95;3.97;;;;;;;;;;5006412;28;20041;-89
2022/01/23 08:48:46;;;;;;;5.72;4.75;;;;;;;;;;5000595;28;20069;-89
2022/01/23 08:51:13;;;;;;;7.57;4.30;;;;;;;;;;4970346;28;20334;-88
2022/01/23 08:53:41;;;;;;;5.03;3.80;;;;;;;;;;5004421;28;20030;-89
2022/01/23 08:56:08;;;;;;;6.57;4.32;;;;;;;;;;4987592;28;20044;-88
2022/01/23 08:58:34;;;;;;;5.53;4.00;;;;;;;;;;4973214;28;20038;-88
2022/01/23 09:01:00;;;;;;;5.82;3.92;;;;;;;;;;5006437;28;20371;-88
2022/01/23 09:03:36;;;;;;;5.03;4.13;;;;;;;;;;5010002;28;20044;-89
2022/01/23 09:06:04;;;;;;;5.88;4.10;;;;;;;;;;5013482;28;20033;-89
2022/01/23 09:08:34;;;;;;;4.70;4.20;;;;;;;;;;5013365;28;20073;-89
2022/01/23 09:11:07;;;;;;;10.30;3.92;;;;;;;;;;5008504;28;20054;-87
2022/01/23 09:13:52;;;;;;;6.25;4.25;;;;;;;;;;4973484;28;20419;-91
2022/01/23 09:16:19;;;;;;;9.57;4.45;;;;;;;;;;5007602;28;20156;-89
2022/01/23 09:18:45;;;;;;;6.68;3.60;;;;;;;;;;5005947;28;20076;-89
2022/01/23 09:21:12;;;;;;;4.95;3.40;;;;;;;;;;4999058;28;20793;-89
2022/01/23 09:23:38;;;;;;;4.93;3.92;;;;;;;;;;5004141;28;20081;-90
2022/01/23 09:26:08;;;;;;;7.53;3.38;;;;;;;;;;5005142;28;20502;-88
2022/01/23 09:28:34;;;;;;;5.57;3.03;;;;;;;;;;5005446;28;20061;-87
2022/01/23 09:31:01;;;;;;;5.38;3.38;;;;;;;;;;4990460;28;20041;-88
2022/01/23 09:33:28;;;;;;;4.85;3.00;;;;;;;;;;4985550;28;20073;-88
2022/01/23 09:35:54;;;;;;;4.57;2.70;;;;;;;;;;5004085;28;21063;-87
2022/01/23 09:38:21;;;;;;;4.45;3.05;;;;;;;;;;5005879;28;20050;-87
2022/01/23 09:40:48;;;;;;;3.55;3.22;;;;;;;;;;4987486;28;20115;-86
2022/01/23 09:43:18;;;;;;;5.15;3.55;;;;;;;;;;5004514;28;20042;-87
2022/01/23 09:45:48;;;;;;;2.83;2.55;;;;;;;;;;4988634;28;20073;-89
2022/01/23 09:48:16;;;;;;;3.22;2.70;;;;;;;;;;5002054;28;20132;-86
2022/01/23 09:50:43;;;;;;;3.88;2.88;;;;;;;;;;5003933;28;20042;-87
2022/01/23 09:53:09;;;;;;;4.50;2.47;;;;;;;;;;4986978;28;20034;-89
2022/01/23 09:55:36;;;;;;;2.78;2.47;;;;;;;;;;4986424;28;20038;-87
2022/01/23 09:58:02;;;;;;;3.40;2.45;;;;;;;;;;5000399;28;20072;-87
2022/01/23 10:00:30;;;;;;;4.10;2.80;;;;;;;;;;4998791;28;20074;-88
2022/01/23 10:02:57;;;;;;;4.25;2.63;;;;;;;;;;4985147;28;20037;-89
2022/01/23 10:05:23;;;;;;;3.28;2.80;;;;;;;;;;4971662;28;20053;-88
2022/01/23 10:07:50;;;;;;;3.20;2.50;;;;;;;;;;5005305;28;20049;-85
2022/01/23 10:10:24;;;;;;;3.45;2.40;;;;;;;;;;4996113;28;20068;-87
2022/01/23 10:12:57;;;;;;;5.38;2.85;;;;;;;;;;5006143;28;20207;-87
2022/01/23 10:15:25;;;;;;;4.15;2.78;;;;;;;;;;4987731;28;20516;-88
2022/01/23 10:17:51;;;;;;;2.60;2.40;;;;;;;;;;5004429;28;20058;-87
2022/01/23 10:20:17;;;;;;;4.55;2.83;;;;;;;;;;5004157;28;20092;-88
2022/01/23 10:22:47;;;;;;;4.57;2.90;;;;;;;;;;5002885;28;20038;-86
2022/01/23 10:25:15;;;;;;;3.72;2.47;;;;;;;;;;5006183;28;20053;-89
2022/01/23 10:27:52;;;;;;;4.70;3.00;;;;;;;;;;4970534;28;20509;-87
2022/01/23 10:30:23;;;;;;;2.38;2.10;;;;;;;;;;4970272;28;20086;-88
2022/01/23 10:33:12;;;;;;;1.27;1.17;;;;;;;;;;4998296;28;20091;-89
2022/01/23 10:35:54;;;;;;;1.10;0.68;;;;;;;;;;4988719;28;20104;-88
2022/01/23 10:38:20;;;;;;;1.02;0.60;;;;;;;;;;4973372;28;20034;-88
2022/01/23 10:40:51;;;;;;;0.70;0.63;;;;;;;;;;5004199;28;20038;-89
2022/01/23 10:48:39;;;;;;;0.40;0.30;;;;;;;;;;4999265;28;20084;-88
2022/01/23 10:51:15;;;;;;;0.30;0.30;;;;;;;;;;4998914;28;20040;-90
2022/01/23 10:53:57;;;;;;;0.70;0.40;;;;;;;;;;4970644;28;20125;-90
2022/01/23 10:56:24;;;;;;;0.85;0.40;;;;;;;;;;4977220;28;20077;-88
2022/01/23 10:59:16;;;;;;;0.70;0.30;;;;;;;;;;4993157;28;20035;-87
2022/01/23 11:02:01;;;;;;;0.30;0.30;;;;;;;;;;4982185;28;20045;-88
2022/01/23 11:04:28;;;;;;;0.30;0.30;;;;;;;;;;5002930;28;20049;-90
2022/01/23 11:07:01;;;;;;;1.67;0.32;;;;;;;;;;4987132;28;20100;-91
2022/01/23 11:09:28;;;;;;;1.38;0.90;;;;;;;;;;4992275;28;20042;-90
2022/01/23 11:12:01;;;;;;;1.50;0.50;;;;;;;;;;4990316;28;20402;-91
2022/01/23 11:17:22;;;;;;;0.63;0.40;;;;;;;;;;4967483;28;20045;-89
2022/01/23 11:19:49;;;;;;;1.75;0.40;;;;;;;;;;5006317;28;20042;-91
2022/01/23 11:22:19;;;;;;;0.82;0.40;;;;;;;;;;4956059;28;20047;-90
2022/01/23 11:24:47;;;;;;;0.93;0.40;;;;;;;;;;4986001;28;20400;-89
2022/01/23 11:27:19;;;;;;;1.98;0.50;;;;;;;;;;4967589;28;20116;-89
2022/01/23 11:30:11;;;;;;;0.68;0.68;;;;;;;;;;4972568;28;20035;-90
2022/01/23 11:32:40;;;;;;;1.45;0.70;;;;;;;;;;4940967;28;20403;-87
2022/01/23 11:35:10;;;;;;;2.58;0.50;;;;;;;;;;4968406;28;20051;-90
2022/01/23 11:37:48;;;;;;;1.33;0.60;;;;;;;;;;4960323;28;20050;-90
2022/01/23 11:54:04;;;;;;;1.38;0.68;;;;;;;;;;4997891;28;20047;-84
2022/01/23 11:56:33;;;;;;;1.42;0.90;;;;;;;;;;4955879;28;20074;-88
2022/01/23 11:59:20;;;;;;;0.88;0.70;;;;;;;;;;4984479;28;20047;-86
2022/01/23 12:05:23;;;;;;;6.47;1.23;;;;;;;;;;4973667;28;20054;-90
2022/01/23 12:08:16;;;;;;;3.25;1.10;;;;;;;;;;4971375;28;20501;-88
2022/01/23 12:16:20;;;;;;;1.70;0.93;;;;;;;;;;4958894;28;20054;-91
2022/01/23 12:16:51;;;;;;;3.78;1.35;;;;;;;;;;4941264;28;20079;-90
2022/01/23 12:19:20;;;;;;;2.42;1.23;;;;;;;;;;4939060;29;20566;-89
2022/01/23 12:21:47;;;;;;;1.52;1.02;;;;;;;;;;4923046;29;20078;-89
2022/01/23 12:24:15;;;;;;;2.28;1.40;;;;;;;;;;4952441;29;20133;-85
2022/01/23 12:26:44;;;;;;;2.45;1.40;;;;;;;;;;4919747;28;20043;-88
2022/01/23 12:29:15;;;;;;;3.15;1.10;;;;;;;;;;4950384;29;20066;-89
2022/01/23 12:31:42;;;;;;;4.10;1.90;;;;;;;;;;4953941;29;20471;-89
2022/01/23 12:34:08;;;;;;;2.05;1.02;;;;;;;;;;4958128;28;20070;-89
2022/01/23 12:36:37;;;;;;;2.05;0.90;;;;;;;;;;4948675;29;20051;-88
2022/01/23 12:39:11;;;;;;;1.88;0.95;;;;;;;;;;4953900;28;20063;-87
2022/01/23 12:41:41;;;;;;;3.35;1.10;;;;;;;;;;4929899;29;20039;-88
2022/01/23 12:44:30;;;;;;;6.07;1.00;;;;;;;;;;4958864;29;20039;-90
2022/01/23 12:46:57;;;;;;;2.15;1.00;;;;;;;;;;4963678;29;20062;-89
2022/01/23 12:49:25;;;;;;;2.50;1.00;;;;;;;;;;4959956;29;20039;-89
2022/01/23 12:52:13;;;;;;;2.55;0.80;;;;;;;;;;4957407;29;20039;-89
2022/01/23 12:54:52;;;;;;;1.55;0.70;;;;;;;;;;4941609;28;20069;-89
2022/01/23 12:57:24;;;;;;;2.33;0.93;;;;;;;;;;4922952;29;20059;-89
2022/01/23 12:59:52;;;;;;;2.75;1.30;;;;;;;;;;4936307;29;20093;-90
2022/01/23 13:02:20;;;;;;;2.15;1.38;;;;;;;;;;4936271;29;20051;-90
2022/01/23 13:04:48;;;;;;;1.95;1.38;;;;;;;;;;4936411;29;20047;-90
2022/01/23 13:08:20;;;;;;;2.13;1.10;;;;;;;;;;4937240;29;20047;-89
2022/01/23 13:12:56;;;;;;;2.67;2.03;;;;;;;;;;4955476;28;20089;-88
2022/01/23 13:15:42;;;;;;;5.40;2.28;;;;;;;;;;4945436;28;20050;-88
2022/01/23 13:18:34;;;;;;;2.60;1.90;;;;;;;;;;4965631;29;20059;-88
2022/01/23 13:27:31;;;;;;;3.60;2.20;;;;;;;;;;4952153;28;20051;-88
2022/01/23 13:30:22;;;;;;;3.60;2.33;;;;;;;;;;4957641;28;20047;-85
2022/01/23 13:33:01;;;;;;;3.97;2.42;;;;;;;;;;4969052;28;20102;-88
2022/01/23 13:35:33;;;;;;;2.90;2.60;;;;;;;;;;4976908;28;20046;-88
2022/01/23 13:38:22;;;;;;;3.42;2.13;;;;;;;;;;4932133;28;20492;-84
2022/01/23 13:40:59;;;;;;;3.28;2.10;;;;;;;;;;4944872;28;21576;-86
2022/01/23 13:54:20;;;;;;;1.50;1.40;;;;;;;;;;4942782;28;20051;-84
2022/01/23 14:02:29;;;;;;;2.58;1.67;;;;;;;;;;4954939;28;20058;-87
2022/01/23 14:05:14;;;;;;;1.70;1.60;;;;;;;;;;4935947;28;20356;-83
2022/01/23 14:07:41;;;;;;;3.03;1.52;;;;;;;;;;4955473;28;20142;-86
2022/01/23 14:10:29;;;;;;;1.85;1.75;;;;;;;;;;4953668;28;20046;-84
2022/01/23 14:13:04;;;;;;;4.10;1.90;;;;;;;;;;4951083;28;20081;-86
2022/01/23 14:15:31;;;;;;;4.22;2.00;;;;;;;;;;4951985;28;20035;-87
2022/01/23 14:18:09;;;;;;;5.40;1.90;;;;;;;;;;4960246;28;20074;-84
2022/01/23 14:20:36;;;;;;;3.15;1.77;;;;;;;;;;4976176;28;20043;-84
2022/01/23 14:23:11;;;;;;;3.25;2.10;;;;;;;;;;4989391;28;20042;-83
2022/01/23 14:25:45;;;;;;;2.72;1.80;;;;;;;;;;4979104;28;20126;-86
2022/01/23 14:28:20;;;;;;;4.15;1.92;;;;;;;;;;4979897;28;20146;-85
2022/01/23 14:30:54;;;;;;;3.42;1.63;;;;;;;;;;4981634;28;20093;-86
2022/01/23 14:33:23;;;;;;;2.40;1.83;;;;;;;;;;4983768;28;20042;-82
2022/01/23 14:35:50;;;;;;;2.72;1.90;;;;;;;;;;4976707;28;20174;-87
2022/01/23 14:38:18;;;;;;;2.75;1.42;;;;;;;;;;4973750;28;20124;-83
2022/01/23 14:41:02;;;;;;;2.70;1.85;;;;;;;;;;4974331;28;20089;-85
2022/01/23 14:43:28;;;;;;;;;;;;;;;;;;4968364;28;20058;-85
2022/01/23 14:45:56;;;;;;;3.03;1.70;;;;;;;;;;4961794;28;20086;-88
2022/01/23 14:48:22;;;;;;;2.45;2.00;;;;;;;;;;4963162;28;20058;-85
2022/01/23 14:50:52;;;;;;;3.47;2.63;;;;;;;;;;4933187;28;20561;-85
2022/01/23 14:53:20;;;;;;;3.33;2.08;;;;;;;;;;4947930;28;20105;-87
2022/01/23 14:55:48;;;;;;;2.40;1.88;;;;;;;;;;4948726;28;20078;-86
2022/01/23 14:58:17;;;;;;;2.83;2.30;;;;;;;;;;4942900;28;20064;-87
2022/01/23 15:00:43;;;;;;;3.75;2.28;;;;;;;;;;4948082;28;20062;-86
2022/01/23 15:03:09;;;;;;;5.35;2.20;;;;;;;;;;4970774;28;20112;-88
2022/01/23 15:05:38;;;;;;;2.88;2.08;;;;;;;;;;4983551;28;20049;-87
2022/01/23 15:08:05;;;;;;;3.85;2.00;;;;;;;;;;4982404;28;20050;-89
2022/01/23 15:10:32;;;;;;;2.67;2.40;;;;;;;;;;4983595;28;20570;-89
2022/01/23 15:12:58;;;;;;;4.22;2.38;;;;;;;;;;4977273;28;20442;-87
2022/01/23 15:15:25;;;;;;;2.30;2.08;;;;;;;;;;4971427;28;20315;-86
2022/01/23 15:17:51;;;;;;;3.55;2.40;;;;;;;;;;4974818;28;20062;-84
2022/01/23 15:20:18;;;;;;;3.67;2.67;;;;;;;;;;4951240;28;20051;-87
2022/01/23 15:22:44;;;;;;;5.57;2.55;;;;;;;;;;4946930;28;20047;-86
2022/01/23 15:25:12;;;;;;;4.80;2.47;;;;;;;;;;4967529;28;20039;-85
2022/01/23 15:27:38;;;;;;;6.65;2.40;;;;;;;;;;4982324;28;20096;-87
2022/01/23 15:30:06;;;;;;;5.05;2.45;;;;;;;;;;4982368;28;20149;-88
2022/01/23 15:32:32;;;;;;;5.03;2.35;;;;;;;;;;4964637;28;20078;-87
2022/01/23 15:35:01;;;;;;;4.60;2.65;;;;;;;;;;4960333;28;20051;-84
2022/01/23 15:37:27;;;;;;;4.65;2.60;;;;;;;;;;4953763;28;20070;-86
2022/01/23 15:39:54;;;;;;;4.90;2.58;;;;;;;;;;4963501;28;20102;-85
2022/01/23 15:42:22;;;;;;;2.45;2.25;;;;;;;;;;4966689;28;20074;-87
2022/01/23 15:44:49;;;;;;;4.53;2.70;;;;;;;;;;4978749;28;20129;-86
2022/01/23 15:47:15;;;;;;;4.38;2.75;;;;;;;;;;4962327;28;20050;-89
2022/01/23 15:49:41;;;;;;;3.25;2.50;;;;;;;;;;4955432;28;20026;-89
2022/01/23 15:52:16;;;;;;;6.28;2.70;;;;;;;;;;4973228;28;20042;-88
2022/01/23 15:54:42;;;;;;;3.55;2.63;;;;;;;;;;4964921;28;20581;-88
2022/01/23 15:57:09;;;;;;;5.13;3.25;;;;;;;;;;4974797;28;20046;-88
2022/01/23 15:59:36;;;;;;;4.68;2.92;;;;;;;;;;4938884;28;20105;-89
2022/01/23 16:02:07;;;;;;;4.72;3.42;;;;;;;;;;4971352;28;20443;-85
2022/01/23 16:04:37;;;;;;;8.50;4.38;;;;;;;;;;4969693;28;20129;-86
2022/01/23 16:07:07;;;;;;;10.68;5.15;;;;;;;;;;4967990;28;20078;-86
2022/01/23 16:09:34;;;;;;;8.90;5.85;;;;;;;;;;4970161;28;20050;-88
2022/01/23 16:12:00;;;;;;;7.57;5.00;;;;;;;;;;4958069;28;20050;-88
2022/01/23 16:14:27;;;;;;;4.68;3.95;;;;;;;;;;4967428;28;20487;-89
2022/01/23 16:16:53;;;;;;;6.20;3.88;;;;;;;;;;4971446;28;20064;-88
2022/01/23 16:19:20;;;;;;;5.93;3.90;;;;;;;;;;4952698;28;20502;-89
2022/01/23 16:21:46;;;;;;;4.70;3.70;;;;;;;;;;4970895;28;20046;-89
2022/01/23 16:24:13;;;;;;;4.70;4.15;;;;;;;;;;4974023;28;20043;-89
2022/01/23 16:26:39;;;;;;;9.18;4.45;;;;;;;;;;4973966;28;20046;-86
2022/01/23 16:29:05;;;;;;;7.85;4.18;;;;;;;;;;4952298;28;20576;-87
2022/01/23 16:31:32;;;;;;;7.18;4.53;;;;;;;;;;4952681;28;20141;-87
2022/01/23 16:33:58;;;;;;;6.00;4.18;;;;;;;;;;4968838;28;20053;-88
2022/01/23 16:36:28;;;;;;;5.57;4.10;;;;;;;;;;4956865;28;20191;-89
2022/01/23 16:38:54;;;;;;;8.45;4.03;;;;;;;;;;4952313;28;20050;-87
2022/01/23 16:41:20;;;;;;;5.57;3.33;;;;;;;;;;4947588;28;20052;-90
2022/01/23 16:43:46;;;;;;;4.85;3.40;;;;;;;;;;4966552;28;20499;-86
2022/01/23 16:46:18;;;;;;;4.63;3.17;;;;;;;;;;4966504;28;20082;-89
2022/01/23 16:48:45;;;;;;;5.63;3.65;;;;;;;;;;4934766;28;20042;-88
2022/01/23 16:51:20;;;;;;;7.38;4.00;;;;;;;;;;4975209;28;20521;-90
2022/01/23 16:53:46;;;;;;;6.85;3.63;;;;;;;;;;4975007;28;20490;-86
2022/01/23 16:56:12;;;;;;;6.00;3.97;;;;;;;;;;4947587;28;20081;-87
2022/01/23 16:58:39;;;;;;;6.65;3.95;;;;;;;;;;4951324;28;20139;-89
2022/01/23 17:01:06;;;;;;;7.28;4.00;;;;;;;;;;4967668;28;20046;-87
2022/01/23 17:03:33;;;;;;;6.50;4.45;;;;;;;;;;4975986;28;20096;-86
2022/01/23 17:06:02;;;;;;;5.18;4.35;;;;;;;;;;4947817;28;20127;-87
2022/01/23 17:08:31;;;;;;;6.38;4.68;;;;;;;;;;4970975;28;20074;-89
2022/01/23 17:10:57;;;;;;;7.32;4.40;;;;;;;;;;4983478;28;20137;-88
2022/01/23 17:13:24;;;;;;;6.05;4.35;;;;;;;;;;4952487;28;20039;-87
2022/01/23 17:15:50;;;;;;;11.00;5.22;;;;;;;;;;4972003;28;20061;-88
2022/01/23 17:18:20;;;;;;;8.65;4.57;;;;;;;;;;4956536;28;20078;-88
2022/01/23 17:20:46;;;;;;;8.77;5.05;;;;;;;;;;4976499;28;20055;-88
2022/01/23 17:23:14;;;;;;;8.50;4.55;;;;;;;;;;4971442;28;20119;-87
2022/01/23 17:25:41;;;;;;;8.63;4.38;;;;;;;;;;4976265;28;20521;-85
2022/01/23 17:28:07;;;;;;;6.47;4.38;;;;;;;;;;4969117;28;20057;-85
2022/01/23 17:30:33;;;;;;;6.75;4.20;;;;;;;;;;4973529;28;20043;-86
2022/01/23 17:32:59;;;;;;;7.65;4.28;;;;;;;;;;4964881;28;20038;-88
2022/01/23 17:35:25;;;;;;;4.72;3.83;;;;;;;;;;4966676;28;20121;-86
2022/01/23 17:37:51;;;;;;;9.32;4.18;;;;;;;;;;4943793;28;20146;-88
2022/01/23 17:40:27;;;;;;;8.43;3.72;;;;;;;;;;4969429;28;20035;-88
2022/01/23 17:42:53;;;;;;;13.10;3.45;;;;;;;;;;4948471;28;20051;-89
2022/01/23 17:45:27;;;;;;;6.07;3.75;;;;;;;;;;4949428;28;20046;-88
2022/01/23 17:50:21;;;;;;;6.70;3.67;;;;;;;;;;4948097;28;20554;-85
2022/01/23 17:52:50;;;;;;;7.93;4.15;;;;;;;;;;4964243;28;20462;-88
2022/01/23 17:55:54;;;;;;;7.45;4.15;;;7.20;99.90;;;;;;4959835;23;20051;-87
2022/01/23 17:58:20;;;;;;;6.20;3.80;;;;;;;;;;5037422;28;20051;-88
2022/01/23 18:00:46;;;;;;;10.10;4.40;;;;;;;;;;5031910;28;20053;-86
2022/01/23 18:03:16;;;;;;;7.03;4.72;;;;;;;;;;5028088;28;20489;-88
2022/01/23 18:05:46;;;;;;;4.70;3.67;;;;;;;;;;5031897;28;20034;-89
2022/01/23 18:08:12;;;;;;;7.68;4.18;;;;;;;;;;5027067;28;20053;-86
2022/01/23 18:10:39;;;;;;;8.05;3.88;;;;;;;;;;5023440;28;20041;-83
2022/01/23 18:13:05;;;;;;;10.50;4.28;;;;;;;;;;5023095;28;20139;-88
2022/01/23 18:15:32;;;;;;;9.77;4.28;;;;;;;;;;5039196;28;20080;-84
2022/01/23 18:18:00;;;;;;;6.95;5.00;;;;;;;;;;5025013;28;20052;-86
2022/01/23 18:20:26;;;;;;;6.63;5.68;;;;;;;;;;5023717;28;20045;-87
2022/01/23 18:22:52;;;;;;;7.82;5.38;;;;;;;;;;5006405;28;20572;-88
2022/01/23 18:25:20;;;;;;;8.73;4.95;;;;;;;;;;5024602;28;20052;-88
2022/01/23 18:27:46;;;;;;;10.40;5.18;;;;;;;;;;5020068;28;20063;-88